Old Westfield, New York
Current Conditions -  °F | °C
As of 10:56 PM on Friday 24 Oct 2014 (Local Time) from KISP Reporting Station
Few Clouds Few Clouds  
Wind Chill: 47°   Ceiling: Unl
Heat Index: 49°   Visibility: 10mi
Dew Point: 45°   Wind: 5mph
Humidity: 86%   Direction: 280°W
Pressure: 29.8"   Gusts: NA
Location:  40.87°N, 73.0428°W
Report Text: KISP 250256Z 28004KT 10SM FEW044 09/07 A2980 RMK AO2 SLP093 T00940072 51006
Loading
Personal Weather Stations






























Interactive Weather Map
Tropical Storm Tracking
New forecast layout! Learn more

10-Day Weather Forecast

Advertisements
Track Severe Weather on mobile